Terminal Aerodrome Forecast
Issued by NWS

Home | Current Version | Previous Version | Text Only | Print | Product List | Glossary On
Versions: 1 2 3 4 5 6 7 8 9 10 11 12
000
FTUS46 KSTO 252300 RRA
TAFRDD
TAF
KRDD 252349Z 2600/2624 17009KT P6SM SCT060 BKN200
      TEMPO 2600/2602 TSRA BKN025CB
     FM260400 VRB03KT P6SM SCT100
     FM262100 18008KT P6SM SCT250=

USA.gov is the U.S. government's official web portal to all federal, state and local government web resources and services.